Sidney, Illinois
Current Conditions -  °F | °C
As of 10:07 AM on Monday 26 Jan 2015 (Local Time) from KCMI Reporting Station
Overcast Overcast  
Wind Chill: 18°   Ceiling: 1000
Heat Index: 26°   Visibility: 10mi
Dew Point: 21°   Wind: 7mph
Humidity: 81%   Direction: 270°W
Pressure: 29.99"   Gusts: NA
Location:  40.03°N, 88.07°W
Report Text: KCMI 261607Z 27006KT 10SM OVC010 M03/M06 A2999 RMK AO2 T10331061
Loading
Personal Weather Stations






























Interactive Weather Map New forecast layout! Learn more

10-Day Weather Forecast

Advertisements
Track Severe Weather on mobile